sensor_id;sensor_type;location;lat;lon;timestamp;P1;durP1;ratioP1;P2;durP2;ratioP2
908;SDS011;441;51.192;6.788;2023-04-15T00:01:53;8.40;;;8.10;;
908;SDS011;441;51.192;6.788;2023-04-15T00:04:20;8.07;;;7.87;;
908;SDS011;441;51.192;6.788;2023-04-15T00:06:49;8.43;;;8.23;;
908;SDS011;441;51.192;6.788;2023-04-15T00:09:18;8.30;;;8.10;;
908;SDS011;441;51.192;6.788;2023-04-15T00:11:45;8.73;;;8.53;;
908;SDS011;441;51.192;6.788;2023-04-15T00:14:12;9.03;;;8.83;;
908;SDS011;441;51.192;6.788;2023-04-15T00:16:39;8.53;;;8.30;;
908;SDS011;441;51.192;6.788;2023-04-15T00:19:06;8.83;;;8.63;;
908;SDS011;441;51.192;6.788;2023-04-15T00:21:33;8.43;;;8.23;;
908;SDS011;441;51.192;6.788;2023-04-15T00:24:00;8.30;;;8.10;;
908;SDS011;441;51.192;6.788;2023-04-15T00:26:29;9.20;;;8.90;;
908;SDS011;441;51.192;6.788;2023-04-15T00:28:56;8.73;;;8.53;;
908;SDS011;441;51.192;6.788;2023-04-15T00:31:23;8.53;;;8.33;;
908;SDS011;441;51.192;6.788;2023-04-15T00:33:50;8.70;;;8.50;;
908;SDS011;441;51.192;6.788;2023-04-15T00:36:17;8.50;;;8.20;;
908;SDS011;441;51.192;6.788;2023-04-15T00:38:44;8.33;;;8.13;;
908;SDS011;441;51.192;6.788;2023-04-15T00:41:11;8.80;;;8.50;;
908;SDS011;441;51.192;6.788;2023-04-15T00:43:39;9.53;;;9.23;;
908;SDS011;441;51.192;6.788;2023-04-15T00:46:06;8.60;;;8.40;;
908;SDS011;441;51.192;6.788;2023-04-15T00:48:34;8.40;;;8.20;;
908;SDS011;441;51.192;6.788;2023-04-15T00:51:02;8.27;;;8.07;;
908;SDS011;441;51.192;6.788;2023-04-15T00:53:31;8.97;;;8.47;;
908;SDS011;441;51.192;6.788;2023-04-15T00:55:58;8.50;;;8.30;;
908;SDS011;441;51.192;6.788;2023-04-15T00:58:25;8.53;;;8.33;;
908;SDS011;441;51.192;6.788;2023-04-15T01:00:54;8.30;;;8.10;;
908;SDS011;441;51.192;6.788;2023-04-15T01:03:22;8.60;;;8.30;;
908;SDS011;441;51.192;6.788;2023-04-15T01:05:49;8.87;;;8.57;;
908;SDS011;441;51.192;6.788;2023-04-15T01:08:17;9.50;;;9.20;;
908;SDS011;441;51.192;6.788;2023-04-15T01:10:43;9.33;;;9.03;;
908;SDS011;441;51.192;6.788;2023-04-15T01:13:10;8.30;;;8.03;;
908;SDS011;441;51.192;6.788;2023-04-15T01:15:37;8.60;;;8.40;;
908;SDS011;441;51.192;6.788;2023-04-15T01:18:06;8.03;;;7.83;;
908;SDS011;441;51.192;6.788;2023-04-15T01:20:33;8.77;;;8.33;;
908;SDS011;441;51.192;6.788;2023-04-15T01:23:01;8.83;;;8.43;;
908;SDS011;441;51.192;6.788;2023-04-15T01:25:31;8.40;;;8.20;;
908;SDS011;441;51.192;6.788;2023-04-15T01:27:59;8.93;;;8.50;;
908;SDS011;441;51.192;6.788;2023-04-15T01:30:26;8.80;;;8.60;;
908;SDS011;441;51.192;6.788;2023-04-15T01:32:53;8.70;;;8.40;;
908;SDS011;441;51.192;6.788;2023-04-15T01:35:20;8.27;;;8.07;;
908;SDS011;441;51.192;6.788;2023-04-15T01:37:48;8.90;;;8.60;;
908;SDS011;441;51.192;6.788;2023-04-15T01:40:15;8.17;;;7.97;;
908;SDS011;441;51.192;6.788;2023-04-15T01:42:43;8.50;;;8.30;;
908;SDS011;441;51.192;6.788;2023-04-15T01:45:10;8.40;;;8.20;;
908;SDS011;441;51.192;6.788;2023-04-15T01:47:38;8.73;;;8.17;;
908;SDS011;441;51.192;6.788;2023-04-15T01:50:05;9.10;;;8.80;;
908;SDS011;441;51.192;6.788;2023-04-15T01:52:32;8.67;;;8.33;;
908;SDS011;441;51.192;6.788;2023-04-15T01:54:59;8.53;;;8.33;;
908;SDS011;441;51.192;6.788;2023-04-15T01:57:26;8.73;;;8.53;;
908;SDS011;441;51.192;6.788;2023-04-15T01:59:54;8.20;;;8.00;;
908;SDS011;441;51.192;6.788;2023-04-15T02:02:21;8.37;;;7.97;;
908;SDS011;441;51.192;6.788;2023-04-15T02:04:48;8.37;;;8.17;;
908;SDS011;441;51.192;6.788;2023-04-15T02:07:15;8.13;;;7.93;;
908;SDS011;441;51.192;6.788;2023-04-15T02:09:42;8.20;;;8.00;;
908;SDS011;441;51.192;6.788;2023-04-15T02:12:10;8.03;;;7.83;;
908;SDS011;441;51.192;6.788;2023-04-15T02:14:37;8.53;;;8.33;;
908;SDS011;441;51.192;6.788;2023-04-15T02:17:05;8.30;;;8.10;;
908;SDS011;441;51.192;6.788;2023-04-15T02:19:32;8.50;;;8.20;;
908;SDS011;441;51.192;6.788;2023-04-15T02:21:59;8.40;;;8.20;;
908;SDS011;441;51.192;6.788;2023-04-15T02:24:26;8.17;;;7.97;;
908;SDS011;441;51.192;6.788;2023-04-15T02:26:54;8.20;;;7.90;;
908;SDS011;441;51.192;6.788;2023-04-15T02:29:21;7.97;;;7.77;;
908;SDS011;441;51.192;6.788;2023-04-15T02:31:48;8.63;;;8.33;;
908;SDS011;441;51.192;6.788;2023-04-15T02:34:16;8.10;;;7.90;;
908;SDS011;441;51.192;6.788;2023-04-15T02:36:43;8.67;;;8.37;;
908;SDS011;441;51.192;6.788;2023-04-15T02:39:11;8.30;;;8.00;;
908;SDS011;441;51.192;6.788;2023-04-15T02:41:40;8.27;;;8.07;;
908;SDS011;441;51.192;6.788;2023-04-15T02:44:07;8.67;;;8.37;;
908;SDS011;441;51.192;6.788;2023-04-15T02:46:37;8.47;;;8.17;;
908;SDS011;441;51.192;6.788;2023-04-15T02:49:05;8.53;;;8.23;;
908;SDS011;441;51.192;6.788;2023-04-15T02:51:33;8.40;;;8.20;;
908;SDS011;441;51.192;6.788;2023-04-15T02:54:00;8.67;;;8.37;;
908;SDS011;441;51.192;6.788;2023-04-15T02:56:27;8.10;;;7.90;;
908;SDS011;441;51.192;6.788;2023-04-15T02:58:55;8.00;;;7.80;;
908;SDS011;441;51.192;6.788;2023-04-15T03:01:22;8.30;;;8.10;;
908;SDS011;441;51.192;6.788;2023-04-15T03:03:50;8.60;;;8.30;;
908;SDS011;441;51.192;6.788;2023-04-15T03:06:17;7.83;;;7.63;;
908;SDS011;441;51.192;6.788;2023-04-15T03:08:45;8.30;;;8.10;;
908;SDS011;441;51.192;6.788;2023-04-15T03:11:13;8.23;;;8.03;;
908;SDS011;441;51.192;6.788;2023-04-15T03:13:40;8.50;;;8.27;;
908;SDS011;441;51.192;6.788;2023-04-15T03:16:07;8.40;;;8.20;;
908;SDS011;441;51.192;6.788;2023-04-15T03:18:34;9.30;;;8.93;;
908;SDS011;441;51.192;6.788;2023-04-15T03:21:01;8.30;;;8.10;;
908;SDS011;441;51.192;6.788;2023-04-15T03:23:29;8.30;;;8.00;;
908;SDS011;441;51.192;6.788;2023-04-15T03:26:00;8.80;;;8.50;;
908;SDS011;441;51.192;6.788;2023-04-15T03:28:27;8.80;;;8.57;;
908;SDS011;441;51.192;6.788;2023-04-15T03:30:54;8.47;;;8.27;;
908;SDS011;441;51.192;6.788;2023-04-15T03:33:21;7.93;;;7.73;;
908;SDS011;441;51.192;6.788;2023-04-15T03:35:49;9.17;;;8.87;;
908;SDS011;441;51.192;6.788;2023-04-15T03:38:16;8.27;;;8.07;;
908;SDS011;441;51.192;6.788;2023-04-15T03:40:44;8.80;;;8.60;;
908;SDS011;441;51.192;6.788;2023-04-15T03:43:13;9.10;;;8.80;;
908;SDS011;441;51.192;6.788;2023-04-15T03:45:39;8.17;;;7.97;;
908;SDS011;441;51.192;6.788;2023-04-15T03:48:06;8.90;;;8.60;;
908;SDS011;441;51.192;6.788;2023-04-15T03:50:33;8.50;;;8.30;;
908;SDS011;441;51.192;6.788;2023-04-15T03:53:00;8.93;;;8.53;;
908;SDS011;441;51.192;6.788;2023-04-15T03:55:27;9.13;;;8.67;;
908;SDS011;441;51.192;6.788;2023-04-15T03:57:54;8.83;;;8.53;;
908;SDS011;441;51.192;6.788;2023-04-15T04:00:22;8.67;;;8.47;;
908;SDS011;441;51.192;6.788;2023-04-15T04:02:49;8.50;;;8.30;;
908;SDS011;441;51.192;6.788;2023-04-15T04:05:16;8.73;;;8.43;;
908;SDS011;441;51.192;6.788;2023-04-15T04:07:43;8.40;;;8.20;;
908;SDS011;441;51.192;6.788;2023-04-15T04:10:10;8.63;;;8.43;;
908;SDS011;441;51.192;6.788;2023-04-15T04:12:37;8.60;;;8.40;;
908;SDS011;441;51.192;6.788;2023-04-15T04:15:04;9.23;;;8.93;;
908;SDS011;441;51.192;6.788;2023-04-15T04:17:33;9.53;;;9.17;;
908;SDS011;441;51.192;6.788;2023-04-15T04:20:00;9.10;;;8.80;;
908;SDS011;441;51.192;6.788;2023-04-15T04:22:27;8.63;;;8.43;;
908;SDS011;441;51.192;6.788;2023-04-15T04:24:54;8.47;;;8.27;;
908;SDS011;441;51.192;6.788;2023-04-15T04:27:23;8.53;;;8.33;;
908;SDS011;441;51.192;6.788;2023-04-15T04:29:50;9.20;;;8.90;;
908;SDS011;441;51.192;6.788;2023-04-15T04:32:17;8.43;;;8.23;;
908;SDS011;441;51.192;6.788;2023-04-15T04:34:45;9.10;;;8.80;;
908;SDS011;441;51.192;6.788;2023-04-15T04:37:12;8.17;;;7.97;;
908;SDS011;441;51.192;6.788;2023-04-15T04:39:39;8.83;;;8.53;;
908;SDS011;441;51.192;6.788;2023-04-15T04:42:06;8.10;;;7.80;;
908;SDS011;441;51.192;6.788;2023-04-15T04:44:33;8.43;;;8.23;;
908;SDS011;441;51.192;6.788;2023-04-15T04:46:59;8.60;;;8.40;;
908;SDS011;441;51.192;6.788;2023-04-15T04:49:26;8.80;;;8.53;;
908;SDS011;441;51.192;6.788;2023-04-15T04:51:55;8.63;;;8.33;;
908;SDS011;441;51.192;6.788;2023-04-15T04:54:22;9.77;;;9.47;;
908;SDS011;441;51.192;6.788;2023-04-15T04:56:49;8.93;;;8.63;;
908;SDS011;441;51.192;6.788;2023-04-15T04:59:16;9.27;;;9.07;;
908;SDS011;441;51.192;6.788;2023-04-15T05:01:43;8.80;;;8.60;;
908;SDS011;441;51.192;6.788;2023-04-15T05:04:10;8.40;;;8.20;;
908;SDS011;441;51.192;6.788;2023-04-15T05:06:37;9.03;;;8.73;;
908;SDS011;441;51.192;6.788;2023-04-15T05:09:05;8.20;;;8.00;;
908;SDS011;441;51.192;6.788;2023-04-15T05:11:32;8.23;;;8.03;;
908;SDS011;441;51.192;6.788;2023-04-15T05:13:59;8.67;;;8.47;;
908;SDS011;441;51.192;6.788;2023-04-15T05:16:26;9.13;;;8.93;;
908;SDS011;441;51.192;6.788;2023-04-15T05:18:53;9.90;;;9.60;;
908;SDS011;441;51.192;6.788;2023-04-15T05:21:20;10.80;;;10.30;;
908;SDS011;441;51.192;6.788;2023-04-15T05:23:47;10.37;;;9.40;;
908;SDS011;441;51.192;6.788;2023-04-15T05:26:15;10.03;;;9.73;;
908;SDS011;441;51.192;6.788;2023-04-15T05:28:42;10.17;;;9.87;;
908;SDS011;441;51.192;6.788;2023-04-15T05:31:10;10.03;;;9.73;;
908;SDS011;441;51.192;6.788;2023-04-15T05:33:37;9.70;;;9.40;;
908;SDS011;441;51.192;6.788;2023-04-15T05:36:04;10.63;;;10.23;;
908;SDS011;441;51.192;6.788;2023-04-15T05:38:32;10.63;;;10.33;;
908;SDS011;441;51.192;6.788;2023-04-15T05:40:59;10.10;;;9.80;;
908;SDS011;441;51.192;6.788;2023-04-15T05:43:27;10.60;;;10.30;;
908;SDS011;441;51.192;6.788;2023-04-15T05:45:54;10.10;;;9.80;;
908;SDS011;441;51.192;6.788;2023-04-15T05:48:21;10.90;;;10.40;;
908;SDS011;441;51.192;6.788;2023-04-15T05:50:48;11.23;;;10.83;;
908;SDS011;441;51.192;6.788;2023-04-15T05:53:15;11.50;;;11.20;;
908;SDS011;441;51.192;6.788;2023-04-15T05:55:42;11.87;;;11.47;;
908;SDS011;441;51.192;6.788;2023-04-15T05:58:18;12.77;;;12.17;;
908;SDS011;441;51.192;6.788;2023-04-15T06:00:49;12.17;;;11.77;;
908;SDS011;441;51.192;6.788;2023-04-15T06:03:26;11.90;;;11.50;;
908;SDS011;441;51.192;6.788;2023-04-15T06:05:58;11.63;;;11.33;;
908;SDS011;441;51.192;6.788;2023-04-15T06:08:25;12.13;;;11.73;;
908;SDS011;441;51.192;6.788;2023-04-15T06:10:53;12.80;;;11.90;;
908;SDS011;441;51.192;6.788;2023-04-15T06:13:20;11.53;;;11.23;;
908;SDS011;441;51.192;6.788;2023-04-15T06:15:48;12.00;;;11.70;;
908;SDS011;441;51.192;6.788;2023-04-15T06:18:18;12.30;;;11.80;;
908;SDS011;441;51.192;6.788;2023-04-15T06:20:45;11.87;;;11.57;;
908;SDS011;441;51.192;6.788;2023-04-15T06:23:12;12.27;;;11.90;;
908;SDS011;441;51.192;6.788;2023-04-15T06:25:39;12.47;;;12.03;;
908;SDS011;441;51.192;6.788;2023-04-15T06:28:06;11.63;;;11.23;;
908;SDS011;441;51.192;6.788;2023-04-15T06:30:37;17.67;;;17.07;;
908;SDS011;441;51.192;6.788;2023-04-15T06:33:12;10.20;;;9.90;;
908;SDS011;441;51.192;6.788;2023-04-15T06:35:44;10.27;;;9.90;;
908;SDS011;441;51.192;6.788;2023-04-15T06:38:14;10.03;;;9.63;;
908;SDS011;441;51.192;6.788;2023-04-15T06:40:48;10.40;;;10.20;;
908;SDS011;441;51.192;6.788;2023-04-15T06:43:15;11.23;;;10.93;;
908;SDS011;441;51.192;6.788;2023-04-15T06:45:42;10.70;;;10.40;;
908;SDS011;441;51.192;6.788;2023-04-15T06:48:11;11.30;;;10.90;;
908;SDS011;441;51.192;6.788;2023-04-15T06:50:38;10.17;;;9.83;;
908;SDS011;441;51.192;6.788;2023-04-15T06:53:07;10.63;;;10.23;;
908;SDS011;441;51.192;6.788;2023-04-15T06:55:34;9.90;;;9.40;;
908;SDS011;441;51.192;6.788;2023-04-15T06:58:01;9.77;;;9.20;;
908;SDS011;441;51.192;6.788;2023-04-15T07:00:28;9.37;;;9.17;;
908;SDS011;441;51.192;6.788;2023-04-15T07:02:57;9.57;;;9.27;;
908;SDS011;441;51.192;6.788;2023-04-15T07:05:28;9.60;;;9.30;;
908;SDS011;441;51.192;6.788;2023-04-15T07:07:57;7.90;;;7.60;;
908;SDS011;441;51.192;6.788;2023-04-15T07:10:26;9.80;;;9.40;;
908;SDS011;441;51.192;6.788;2023-04-15T07:12:54;9.87;;;9.57;;
908;SDS011;441;51.192;6.788;2023-04-15T07:15:21;10.60;;;10.30;;
908;SDS011;441;51.192;6.788;2023-04-15T07:17:49;10.00;;;9.70;;
908;SDS011;441;51.192;6.788;2023-04-15T07:20:16;9.90;;;9.60;;
908;SDS011;441;51.192;6.788;2023-04-15T07:22:44;10.00;;;9.80;;
908;SDS011;441;51.192;6.788;2023-04-15T07:25:11;10.20;;;9.90;;
908;SDS011;441;51.192;6.788;2023-04-15T07:27:38;10.83;;;10.43;;
908;SDS011;441;51.192;6.788;2023-04-15T07:30:06;9.60;;;9.40;;
908;SDS011;441;51.192;6.788;2023-04-15T07:32:34;10.40;;;10.00;;
908;SDS011;441;51.192;6.788;2023-04-15T07:35:01;9.90;;;9.60;;
908;SDS011;441;51.192;6.788;2023-04-15T07:37:29;9.60;;;9.40;;
908;SDS011;441;51.192;6.788;2023-04-15T07:39:57;10.03;;;9.70;;
908;SDS011;441;51.192;6.788;2023-04-15T07:42:24;10.53;;;9.90;;
908;SDS011;441;51.192;6.788;2023-04-15T07:44:51;11.03;;;10.53;;
908;SDS011;441;51.192;6.788;2023-04-15T07:47:18;10.20;;;9.90;;
908;SDS011;441;51.192;6.788;2023-04-15T07:49:46;10.50;;;10.20;;
908;SDS011;441;51.192;6.788;2023-04-15T07:52:13;9.47;;;9.17;;
908;SDS011;441;51.192;6.788;2023-04-15T07:54:40;9.87;;;9.57;;
908;SDS011;441;51.192;6.788;2023-04-15T07:57:08;10.20;;;10.00;;
908;SDS011;441;51.192;6.788;2023-04-15T07:59:35;9.80;;;9.50;;
908;SDS011;441;51.192;6.788;2023-04-15T08:02:02;10.20;;;9.60;;
908;SDS011;441;51.192;6.788;2023-04-15T08:04:29;10.33;;;9.80;;
908;SDS011;441;51.192;6.788;2023-04-15T08:06:57;10.00;;;9.70;;
908;SDS011;441;51.192;6.788;2023-04-15T08:09:24;9.23;;;8.93;;
908;SDS011;441;51.192;6.788;2023-04-15T08:11:51;11.70;;;9.67;;
908;SDS011;441;51.192;6.788;2023-04-15T08:14:20;9.85;;;9.18;;
908;SDS011;441;51.192;6.788;2023-04-15T08:16:47;8.80;;;8.60;;
908;SDS011;441;51.192;6.788;2023-04-15T08:19:14;9.90;;;9.30;;
908;SDS011;441;51.192;6.788;2023-04-15T08:21:41;9.33;;;8.97;;
908;SDS011;441;51.192;6.788;2023-04-15T08:24:08;9.30;;;9.00;;
908;SDS011;441;51.192;6.788;2023-04-15T08:26:35;9.37;;;9.00;;
908;SDS011;441;51.192;6.788;2023-04-15T08:29:02;10.00;;;9.53;;
908;SDS011;441;51.192;6.788;2023-04-15T08:31:30;9.23;;;8.83;;
908;SDS011;441;51.192;6.788;2023-04-15T08:33:57;11.37;;;10.83;;
908;SDS011;441;51.192;6.788;2023-04-15T08:36:24;9.50;;;9.17;;
908;SDS011;441;51.192;6.788;2023-04-15T08:38:51;11.60;;;10.90;;
908;SDS011;441;51.192;6.788;2023-04-15T08:41:20;11.07;;;10.20;;
908;SDS011;441;51.192;6.788;2023-04-15T08:43:51;12.43;;;11.33;;
908;SDS011;441;51.192;6.788;2023-04-15T08:46:19;10.57;;;9.87;;
908;SDS011;441;51.192;6.788;2023-04-15T08:48:48;11.03;;;10.43;;
908;SDS011;441;51.192;6.788;2023-04-15T08:51:16;10.07;;;9.37;;
908;SDS011;441;51.192;6.788;2023-04-15T08:53:43;10.50;;;9.90;;
908;SDS011;441;51.192;6.788;2023-04-15T08:56:12;10.00;;;9.60;;
908;SDS011;441;51.192;6.788;2023-04-15T08:58:40;9.73;;;9.23;;
908;SDS011;441;51.192;6.788;2023-04-15T09:01:08;10.80;;;10.37;;
908;SDS011;441;51.192;6.788;2023-04-15T09:03:37;10.13;;;9.77;;
908;SDS011;441;51.192;6.788;2023-04-15T09:06:06;9.70;;;9.40;;
908;SDS011;441;51.192;6.788;2023-04-15T09:08:33;8.50;;;8.20;;
908;SDS011;441;51.192;6.788;2023-04-15T09:11:00;9.60;;;9.30;;
908;SDS011;441;51.192;6.788;2023-04-15T09:13:28;9.73;;;9.23;;
908;SDS011;441;51.192;6.788;2023-04-15T09:15:55;9.30;;;8.83;;
908;SDS011;441;51.192;6.788;2023-04-15T09:18:29;9.47;;;9.17;;
908;SDS011;441;51.192;6.788;2023-04-15T09:21:02;8.87;;;8.60;;
908;SDS011;441;51.192;6.788;2023-04-15T09:23:32;9.43;;;9.20;;
908;SDS011;441;51.192;6.788;2023-04-15T09:25:59;8.80;;;8.60;;
908;SDS011;441;51.192;6.788;2023-04-15T09:28:26;8.40;;;8.20;;
908;SDS011;441;51.192;6.788;2023-04-15T09:30:54;8.70;;;8.40;;
908;SDS011;441;51.192;6.788;2023-04-15T09:33:22;9.43;;;9.13;;
908;SDS011;441;51.192;6.788;2023-04-15T09:35:56;9.50;;;9.17;;
908;SDS011;441;51.192;6.788;2023-04-15T09:38:25;9.50;;;9.20;;
908;SDS011;441;51.192;6.788;2023-04-15T09:40:53;8.80;;;8.60;;
908;SDS011;441;51.192;6.788;2023-04-15T09:43:21;8.90;;;8.70;;
908;SDS011;441;51.192;6.788;2023-04-15T09:45:51;9.23;;;8.97;;
908;SDS011;441;51.192;6.788;2023-04-15T09:48:19;8.67;;;8.43;;
908;SDS011;441;51.192;6.788;2023-04-15T09:50:47;8.77;;;8.57;;
908;SDS011;441;51.192;6.788;2023-04-15T09:53:15;9.40;;;9.10;;
908;SDS011;441;51.192;6.788;2023-04-15T09:55:44;9.30;;;9.10;;
908;SDS011;441;51.192;6.788;2023-04-15T09:58:20;9.17;;;8.87;;
908;SDS011;441;51.192;6.788;2023-04-15T10:00:48;8.43;;;8.23;;
908;SDS011;441;51.192;6.788;2023-04-15T10:03:17;8.40;;;8.20;;
908;SDS011;441;51.192;6.788;2023-04-15T10:05:46;8.00;;;7.80;;
908;SDS011;441;51.192;6.788;2023-04-15T10:08:15;8.60;;;8.40;;
908;SDS011;441;51.192;6.788;2023-04-15T10:10:44;8.13;;;7.93;;
908;SDS011;441;51.192;6.788;2023-04-15T10:13:12;8.53;;;8.30;;
908;SDS011;441;51.192;6.788;2023-04-15T10:15:42;8.80;;;8.47;;
908;SDS011;441;51.192;6.788;2023-04-15T10:18:14;8.70;;;8.40;;
908;SDS011;441;51.192;6.788;2023-04-15T10:20:42;8.90;;;8.70;;
908;SDS011;441;51.192;6.788;2023-04-15T10:23:11;9.40;;;8.87;;
908;SDS011;441;51.192;6.788;2023-04-15T10:25:38;8.80;;;8.60;;
908;SDS011;441;51.192;6.788;2023-04-15T10:28:05;8.80;;;8.60;;
908;SDS011;441;51.192;6.788;2023-04-15T10:30:33;9.57;;;9.17;;
908;SDS011;441;51.192;6.788;2023-04-15T10:33:03;9.43;;;9.10;;
908;SDS011;441;51.192;6.788;2023-04-15T10:35:31;9.30;;;8.97;;
908;SDS011;441;51.192;6.788;2023-04-15T10:37:59;9.03;;;8.73;;
908;SDS011;441;51.192;6.788;2023-04-15T10:40:26;10.60;;;10.20;;
908;SDS011;441;51.192;6.788;2023-04-15T10:42:56;9.90;;;9.60;;
908;SDS011;441;51.192;6.788;2023-04-15T10:45:27;9.23;;;8.97;;
908;SDS011;441;51.192;6.788;2023-04-15T10:48:05;9.03;;;8.77;;
908;SDS011;441;51.192;6.788;2023-04-15T10:50:33;8.73;;;8.53;;
908;SDS011;441;51.192;6.788;2023-04-15T10:53:01;9.57;;;9.27;;
908;SDS011;441;51.192;6.788;2023-04-15T10:55:30;8.80;;;8.60;;
908;SDS011;441;51.192;6.788;2023-04-15T10:57:59;9.57;;;9.27;;
908;SDS011;441;51.192;6.788;2023-04-15T11:00:27;8.93;;;8.63;;
908;SDS011;441;51.192;6.788;2023-04-15T11:02:55;9.73;;;9.30;;
908;SDS011;441;51.192;6.788;2023-04-15T11:08:16;9.30;;;8.80;;
908;SDS011;441;51.192;6.788;2023-04-15T11:10:52;8.80;;;8.60;;
908;SDS011;441;51.192;6.788;2023-04-15T11:13:20;9.30;;;9.00;;
908;SDS011;441;51.192;6.788;2023-04-15T11:15:59;8.30;;;8.10;;
908;SDS011;441;51.192;6.788;2023-04-15T11:18:27;8.65;;;8.32;;
908;SDS011;441;51.192;6.788;2023-04-15T11:20:57;7.40;;;7.10;;
908;SDS011;441;51.192;6.788;2023-04-15T11:23:26;8.67;;;8.47;;
908;SDS011;441;51.192;6.788;2023-04-15T11:25:55;7.30;;;7.10;;
908;SDS011;441;51.192;6.788;2023-04-15T11:28:24;13.37;;;12.47;;
908;SDS011;441;51.192;6.788;2023-04-15T11:30:52;22.67;;;20.10;;
908;SDS011;441;51.192;6.788;2023-04-15T11:33:19;45.37;;;34.57;;
908;SDS011;441;51.192;6.788;2023-04-15T11:35:46;37.50;;;30.40;;
908;SDS011;441;51.192;6.788;2023-04-15T11:38:15;25.10;;;22.60;;
908;SDS011;441;51.192;6.788;2023-04-15T11:40:42;20.23;;;18.57;;
908;SDS011;441;51.192;6.788;2023-04-15T11:43:10;17.00;;;15.80;;
908;SDS011;441;51.192;6.788;2023-04-15T11:45:46;16.53;;;15.20;;
908;SDS011;441;51.192;6.788;2023-04-15T11:48:15;15.10;;;14.20;;
908;SDS011;441;51.192;6.788;2023-04-15T11:50:43;10.90;;;10.43;;
908;SDS011;441;51.192;6.788;2023-04-15T11:53:10;11.97;;;11.37;;
908;SDS011;441;51.192;6.788;2023-04-15T11:55:43;9.83;;;9.43;;
908;SDS011;441;51.192;6.788;2023-04-15T11:58:12;9.40;;;9.00;;
908;SDS011;441;51.192;6.788;2023-04-15T12:00:45;9.23;;;8.93;;
908;SDS011;441;51.192;6.788;2023-04-15T12:03:16;8.80;;;8.60;;
908;SDS011;441;51.192;6.788;2023-04-15T12:08:49;8.37;;;8.07;;
908;SDS011;441;51.192;6.788;2023-04-15T12:11:28;7.50;;;7.20;;
908;SDS011;441;51.192;6.788;2023-04-15T12:14:02;8.40;;;8.10;;
908;SDS011;441;51.192;6.788;2023-04-15T12:16:42;8.27;;;8.07;;
908;SDS011;441;51.192;6.788;2023-04-15T12:19:10;9.00;;;8.70;;
908;SDS011;441;51.192;6.788;2023-04-15T12:21:39;8.93;;;8.63;;
908;SDS011;441;51.192;6.788;2023-04-15T12:24:09;7.60;;;7.40;;
908;SDS011;441;51.192;6.788;2023-04-15T12:26:42;7.43;;;7.13;;
908;SDS011;441;51.192;6.788;2023-04-15T12:29:10;7.90;;;7.70;;
908;SDS011;441;51.192;6.788;2023-04-15T12:31:48;7.53;;;7.23;;
908;SDS011;441;51.192;6.788;2023-04-15T12:34:16;7.40;;;7.10;;
908;SDS011;441;51.192;6.788;2023-04-15T12:36:45;6.35;;;6.15;;
908;SDS011;441;51.192;6.788;2023-04-15T12:39:11;7.90;;;7.70;;
908;SDS011;441;51.192;6.788;2023-04-15T12:41:40;8.27;;;7.97;;
908;SDS011;441;51.192;6.788;2023-04-15T12:44:07;8.93;;;8.53;;
908;SDS011;441;51.192;6.788;2023-04-15T12:46:34;9.07;;;8.73;;
908;SDS011;441;51.192;6.788;2023-04-15T12:49:01;11.03;;;10.33;;
908;SDS011;441;51.192;6.788;2023-04-15T12:51:28;18.50;;;14.63;;
908;SDS011;441;51.192;6.788;2023-04-15T12:53:55;32.53;;;25.53;;
908;SDS011;441;51.192;6.788;2023-04-15T12:56:22;43.73;;;31.67;;
908;SDS011;441;51.192;6.788;2023-04-15T12:58:51;39.37;;;30.53;;
908;SDS011;441;51.192;6.788;2023-04-15T13:01:18;36.40;;;30.83;;
908;SDS011;441;51.192;6.788;2023-04-15T13:03:45;32.27;;;27.20;;
908;SDS011;441;51.192;6.788;2023-04-15T13:06:14;33.13;;;29.10;;
908;SDS011;441;51.192;6.788;2023-04-15T13:08:41;36.20;;;27.80;;
908;SDS011;441;51.192;6.788;2023-04-15T13:11:08;34.80;;;31.00;;
908;SDS011;441;51.192;6.788;2023-04-15T13:13:35;38.80;;;34.70;;
908;SDS011;441;51.192;6.788;2023-04-15T13:16:04;35.20;;;31.50;;
908;SDS011;441;51.192;6.788;2023-04-15T13:18:31;34.33;;;28.30;;
908;SDS011;441;51.192;6.788;2023-04-15T13:20:58;34.03;;;27.10;;
908;SDS011;441;51.192;6.788;2023-04-15T13:23:26;36.72;;;31.38;;
908;SDS011;441;51.192;6.788;2023-04-15T13:25:53;45.55;;;39.30;;
908;SDS011;441;51.192;6.788;2023-04-15T13:28:20;52.78;;;46.45;;
908;SDS011;441;51.192;6.788;2023-04-15T13:30:46;55.27;;;45.97;;
908;SDS011;441;51.192;6.788;2023-04-15T13:33:15;52.63;;;45.33;;
908;SDS011;441;51.192;6.788;2023-04-15T13:35:42;53.50;;;46.88;;
908;SDS011;441;51.192;6.788;2023-04-15T13:38:09;48.50;;;41.80;;
908;SDS011;441;51.192;6.788;2023-04-15T13:40:36;47.42;;;42.55;;
908;SDS011;441;51.192;6.788;2023-04-15T13:43:03;45.58;;;40.97;;
908;SDS011;441;51.192;6.788;2023-04-15T13:45:30;45.37;;;40.43;;
908;SDS011;441;51.192;6.788;2023-04-15T13:47:57;45.90;;;40.30;;
908;SDS011;441;51.192;6.788;2023-04-15T13:50:25;47.53;;;42.43;;
908;SDS011;441;51.192;6.788;2023-04-15T13:52:52;45.08;;;40.22;;
908;SDS011;441;51.192;6.788;2023-04-15T13:55:19;44.13;;;39.33;;
908;SDS011;441;51.192;6.788;2023-04-15T13:57:46;42.53;;;37.97;;
908;SDS011;441;51.192;6.788;2023-04-15T14:00:14;43.22;;;38.53;;
908;SDS011;441;51.192;6.788;2023-04-15T14:02:41;41.07;;;36.87;;
908;SDS011;441;51.192;6.788;2023-04-15T14:05:09;34.13;;;30.73;;
908;SDS011;441;51.192;6.788;2023-04-15T14:07:37;35.40;;;30.50;;
908;SDS011;441;51.192;6.788;2023-04-15T14:10:05;40.77;;;30.73;;
908;SDS011;441;51.192;6.788;2023-04-15T14:12:32;34.83;;;31.13;;
908;SDS011;441;51.192;6.788;2023-04-15T14:14:59;31.97;;;28.83;;
908;SDS011;441;51.192;6.788;2023-04-15T14:17:26;31.73;;;28.50;;
908;SDS011;441;51.192;6.788;2023-04-15T14:19:53;33.27;;;29.87;;
908;SDS011;441;51.192;6.788;2023-04-15T14:22:20;32.40;;;29.10;;
908;SDS011;441;51.192;6.788;2023-04-15T14:24:49;33.63;;;28.03;;
908;SDS011;441;51.192;6.788;2023-04-15T14:27:17;30.07;;;26.97;;
908;SDS011;441;51.192;6.788;2023-04-15T14:29:44;30.97;;;26.47;;
908;SDS011;441;51.192;6.788;2023-04-15T14:32:11;33.57;;;30.17;;
908;SDS011;441;51.192;6.788;2023-04-15T14:34:38;28.90;;;25.90;;
908;SDS011;441;51.192;6.788;2023-04-15T14:37:05;26.17;;;23.63;;
908;SDS011;441;51.192;6.788;2023-04-15T14:39:32;26.90;;;24.20;;
908;SDS011;441;51.192;6.788;2023-04-15T14:42:00;27.67;;;24.73;;
908;SDS011;441;51.192;6.788;2023-04-15T14:44:27;30.75;;;23.88;;
908;SDS011;441;51.192;6.788;2023-04-15T14:46:54;31.13;;;27.00;;
908;SDS011;441;51.192;6.788;2023-04-15T14:49:21;27.90;;;24.47;;
908;SDS011;441;51.192;6.788;2023-04-15T14:51:48;28.50;;;25.00;;
908;SDS011;441;51.192;6.788;2023-04-15T14:54:15;24.13;;;21.70;;
908;SDS011;441;51.192;6.788;2023-04-15T14:56:42;27.43;;;23.93;;
908;SDS011;441;51.192;6.788;2023-04-15T14:59:10;28.97;;;23.97;;
908;SDS011;441;51.192;6.788;2023-04-15T15:01:37;26.40;;;22.50;;
908;SDS011;441;51.192;6.788;2023-04-15T15:04:04;25.40;;;22.80;;
908;SDS011;441;51.192;6.788;2023-04-15T15:06:31;25.73;;;23.03;;
908;SDS011;441;51.192;6.788;2023-04-15T15:08:58;23.37;;;21.17;;
908;SDS011;441;51.192;6.788;2023-04-15T15:11:26;23.70;;;21.30;;
908;SDS011;441;51.192;6.788;2023-04-15T15:13:53;23.67;;;21.53;;
908;SDS011;441;51.192;6.788;2023-04-15T15:16:22;26.27;;;23.50;;
908;SDS011;441;51.192;6.788;2023-04-15T15:18:49;28.83;;;25.00;;
908;SDS011;441;51.192;6.788;2023-04-15T15:21:16;29.50;;;26.40;;
908;SDS011;441;51.192;6.788;2023-04-15T15:23:43;24.27;;;21.93;;
908;SDS011;441;51.192;6.788;2023-04-15T15:26:12;24.47;;;21.97;;
908;SDS011;441;51.192;6.788;2023-04-15T15:28:39;25.43;;;23.00;;
908;SDS011;441;51.192;6.788;2023-04-15T15:31:06;23.23;;;21.03;;
908;SDS011;441;51.192;6.788;2023-04-15T15:33:34;39.77;;;35.43;;
908;SDS011;441;51.192;6.788;2023-04-15T15:36:02;54.33;;;48.13;;
908;SDS011;441;51.192;6.788;2023-04-15T15:38:29;47.17;;;41.47;;
908;SDS011;441;51.192;6.788;2023-04-15T15:40:56;46.70;;;41.97;;
908;SDS011;441;51.192;6.788;2023-04-15T15:43:23;52.17;;;44.07;;
908;SDS011;441;51.192;6.788;2023-04-15T15:45:50;43.00;;;38.70;;